Time;durP1;ratioP1;P1;durP2;ratioP2;P2;SDS_P1;SDS_P2;PMS_P1;PMS_P2;Temp;Humidity;BMP_temperature;BMP_pressure;BME280_temperature;BME280_humidity;BME280_pressure;Samples;Min_cycle;Max_cycle;Signal;HPM_P1;HPM_P2
2020/12/08 00:00:01;;;;;;;22.23;15.53;;;2.80;1.00;;;;;;4798609;28;20180;-83
2020/12/08 00:02:32;;;;;;;20.73;16.30;;;2.80;1.00;;;;;;4794046;28;20278;-84
2020/12/08 00:04:56;;;;;;;20.27;14.50;;;;;;;;;;4792121;28;20701;-88
2020/12/08 00:07:20;;;;;;;21.27;14.97;;;3.00;1.00;;;;;;4790319;28;20192;-90
2020/12/08 00:09:42;;;;;;;18.97;13.97;;;2.90;1.00;;;;;;4776123;28;20209;-90
2020/12/08 00:12:05;;;;;;;17.57;13.13;;;2.60;1.00;;;;;;4788243;28;20216;-87
2020/12/08 00:14:27;;;;;;;19.20;13.67;;;2.70;1.00;;;;;;4789647;28;20196;-90
2020/12/08 00:16:49;;;;;;;20.13;14.17;;;2.90;1.00;;;;;;4789389;28;20209;-88
2020/12/08 00:19:12;;;;;;;17.73;13.37;;;2.60;1.00;;;;;;4797215;28;20188;-90
2020/12/08 00:21:36;;;;;;;19.40;13.70;;;;;;;;;;4795611;28;20188;-89
2020/12/08 00:23:58;;;;;;;19.67;13.73;;;2.60;1.00;;;;;;4786178;28;20236;-87
2020/12/08 00:26:20;;;;;;;17.47;13.30;;;2.50;1.00;;;;;;4784658;28;20610;-86
2020/12/08 00:28:42;;;;;;;19.50;14.27;;;2.50;1.00;;;;;;4795153;28;20200;-87
2020/12/08 00:31:05;;;;;;;21.33;14.43;;;;;;;;;;4797074;28;20204;-86
2020/12/08 00:33:27;;;;;;;20.00;14.17;;;2.50;1.00;;;;;;4789669;28;20192;-86
2020/12/08 00:35:50;;;;;;;20.10;13.93;;;2.60;1.00;;;;;;4790330;28;20184;-88
2020/12/08 00:38:12;;;;;;;20.17;14.77;;;2.40;1.00;;;;;;4790335;28;20229;-89
2020/12/08 00:40:34;;;;;;;17.93;13.57;;;2.50;1.00;;;;;;4785323;28;20193;-87
2020/12/08 00:42:57;;;;;;;20.70;14.87;;;;;;;;;;4768036;28;20272;-89
2020/12/08 00:45:19;;;;;;;19.67;15.30;;;2.50;1.00;;;;;;4772648;28;20239;-89
2020/12/08 00:47:41;;;;;;;18.30;14.03;;;2.50;1.00;;;;;;4791919;28;20243;-88
2020/12/08 00:50:04;;;;;;;20.97;14.20;;;2.50;1.00;;;;;;4766246;28;20624;-86
2020/12/08 00:52:28;;;;;;;20.17;14.70;;;2.40;1.00;;;;;;4803574;28;20255;-87
2020/12/08 00:54:50;;;;;;;20.47;15.13;;;;;;;;;;4794048;28;20216;-84
2020/12/08 00:57:12;;;;;;;20.37;15.30;;;2.40;1.00;;;;;;4795147;28;20216;-85
2020/12/08 00:59:38;;;;;;;20.40;14.50;;;;;;;;;;4792612;28;20197;-88
2020/12/08 01:02:01;;;;;;;20.60;15.23;;;;;;;;;;4775229;28;20238;-88
2020/12/08 01:04:25;;;;;;;20.43;15.27;;;;;;;;;;4786447;28;20247;-88
2020/12/08 01:06:47;;;;;;;17.33;13.20;;;2.30;1.00;;;;;;4791626;28;20741;-88
2020/12/08 01:09:11;;;;;;;20.27;14.70;;;2.30;1.00;;;;;;4797762;28;20196;-88
2020/12/08 01:11:39;;;;;;;19.17;12.60;;;2.20;1.00;;;;;;4769664;28;20263;-91
2020/12/08 01:14:07;;;;;;;17.77;13.73;;;2.20;1.00;;;;;;4797426;28;20622;-83
2020/12/08 01:16:29;;;;;;;18.77;13.33;;;;;;;;;;4773090;28;20204;-89
2020/12/08 01:18:57;;;;;;;16.83;12.87;;;2.30;1.00;;;;;;4790997;28;20558;-89
2020/12/08 01:21:21;;;;;;;18.83;13.83;;;;;;;;;;4799586;28;20204;-89
2020/12/08 01:23:46;;;;;;;20.07;14.00;;;2.20;1.00;;;;;;4799909;28;20605;-86
2020/12/08 01:26:10;;;;;;;19.60;14.53;;;2.40;18.20;;;;;;4796792;28;20242;-89
2020/12/08 01:28:35;;;;;;;21.53;15.40;;;;;;;;;;4794269;28;20665;-90
2020/12/08 01:30:58;;;;;;;19.37;15.00;;;2.30;1.00;;;;;;4794836;28;20201;-90
2020/12/08 01:33:20;;;;;;;19.73;13.37;;;;;;;;;;4795793;28;20615;-88
2020/12/08 01:35:44;;;;;;;20.87;14.67;;;2.30;1.00;;;;;;4792304;28;20204;-88
2020/12/08 01:38:07;;;;;;;18.87;13.37;;;2.20;11.50;;;;;;4797570;28;20224;-87
2020/12/08 01:40:29;;;;;;;17.87;13.60;;;;;;;;;;4788051;28;20729;-89
2020/12/08 01:42:52;;;;;;;18.83;13.77;;;2.30;92.40;;;;;;4793918;28;20192;-88
2020/12/08 01:45:15;;;;;;;15.93;12.43;;;2.50;1.00;;;;;;4776071;28;20717;-88
2020/12/08 01:47:38;;;;;;;19.70;14.13;;;2.30;71.40;;;;;;4764798;29;20193;-88
2020/12/08 01:50:02;;;;;;;19.00;14.07;;;2.40;1.00;;;;;;4786877;28;20244;-88
2020/12/08 01:52:27;;;;;;;18.10;13.80;;;2.30;1.00;;;;;;4787948;28;20598;-85
2020/12/08 01:54:54;;;;;;;19.20;14.27;;;2.70;1.00;;;;;;4794904;28;20220;-89
2020/12/08 01:57:22;;;;;;;22.90;14.73;;;2.30;1.00;;;;;;4790723;28;20649;-88
2020/12/08 01:59:48;;;;;;;43.17;26.13;;;2.30;17.20;;;;;;4787102;28;20204;-89
2020/12/08 02:02:18;;;;;;;41.07;24.37;;;;;;;;;;4797030;28;20208;-90
2020/12/08 02:04:41;;;;;;;26.00;17.63;;;;;;;;;;4785015;28;20312;-87
2020/12/08 02:07:04;;;;;;;25.17;15.10;;;;;;;;;;4773263;28;20268;-83
2020/12/08 02:09:26;;;;;;;22.47;14.90;;;2.60;99.90;;;;;;4799391;28;20193;-88
2020/12/08 02:11:48;;;;;;;20.30;13.17;;;2.30;1.00;;;;;;4798442;28;20774;-89
2020/12/08 02:14:12;;;;;;;23.43;15.80;;;2.30;29.40;;;;;;4793094;28;20605;-89
2020/12/08 02:16:36;;;;;;;19.50;14.37;;;2.30;1.00;;;;;;4792330;28;20254;-88
2020/12/08 02:19:00;;;;;;;22.23;14.20;;;2.20;1.00;;;;;;4780072;28;20220;-85
2020/12/08 02:21:32;;;;;;;20.17;13.57;;;2.30;1.00;;;;;;4791582;28;20663;-91
2020/12/08 02:24:00;;;;;;;18.83;13.97;;;2.30;99.20;;;;;;4790032;28;20251;-89
2020/12/08 02:26:27;;;;;;;17.83;12.90;;;2.00;34.80;;;;;;4790374;28;20254;-91
2020/12/08 02:28:50;;;;;;;18.63;12.73;;;2.40;1.00;;;;;;4789625;28;20185;-88
2020/12/08 02:31:13;;;;;;;18.93;13.13;;;3.40;1.00;;;;;;4791297;28;20196;-89
2020/12/08 02:33:36;;;;;;;19.63;12.83;;;;;;;;;;4760043;28;20221;-90
2020/12/08 02:36:01;;;;;;;18.70;13.17;;;2.20;1.00;;;;;;4786249;28;20244;-89
2020/12/08 02:38:25;;;;;;;19.33;13.43;;;2.20;1.00;;;;;;4775879;28;20287;-88
2020/12/08 02:40:48;;;;;;;18.50;13.47;;;;;;;;;;4793562;28;20213;-89
2020/12/08 02:43:10;;;;;;;18.87;13.17;;;2.20;1.00;;;;;;4791141;28;20757;-90
2020/12/08 02:45:32;;;;;;;17.77;12.50;;;;;;;;;;4784142;28;20223;-90
2020/12/08 02:47:58;;;;;;;17.67;12.30;;;2.40;1.00;;;;;;4779377;28;20678;-83
2020/12/08 02:50:21;;;;;;;16.03;12.23;;;;;;;;;;4796346;28;20296;-87
2020/12/08 02:52:45;;;;;;;18.83;12.70;;;0.50;1.00;;;;;;4788440;28;20724;-85
2020/12/08 02:55:08;;;;;;;16.33;12.00;;;2.20;1.00;;;;;;4789732;28;20227;-85
2020/12/08 02:57:38;;;;;;;16.77;12.73;;;2.20;1.00;;;;;;4795698;28;20220;-83
2020/12/08 03:00:01;;;;;;;19.10;12.27;;;2.20;1.00;;;;;;4790842;28;20619;-90
2020/12/08 03:02:26;;;;;;;17.83;12.67;;;2.10;1.00;;;;;;4785657;28;20234;-88
2020/12/08 03:04:49;;;;;;;18.63;12.60;;;2.10;1.00;;;;;;4774311;28;20240;-89
2020/12/08 03:07:13;;;;;;;18.17;12.50;;;2.00;1.00;;;;;;4772524;28;20192;-86
2020/12/08 03:09:36;;;;;;;18.77;13.13;;;;;;;;;;4795584;28;20295;-87
2020/12/08 03:12:02;;;;;;;18.20;12.47;;;1.90;1.00;;;;;;4791381;28;20200;-88
2020/12/08 03:14:26;;;;;;;17.70;12.77;;;;;;;;;;4794287;28;20207;-87
2020/12/08 03:16:49;;;;;;;16.07;12.30;;;2.30;1.00;;;;;;4787011;28;20196;-84
2020/12/08 03:19:12;;;;;;;17.13;12.50;;;1.60;1.00;;;;;;4786495;28;20224;-88
2020/12/08 03:21:35;;;;;;;16.97;12.57;;;2.10;1.00;;;;;;4783989;28;20266;-89
2020/12/08 03:24:02;;;;;;;19.27;12.77;;;2.10;1.00;;;;;;4783366;28;20196;-86
2020/12/08 03:26:26;;;;;;;17.17;12.13;;;2.10;1.00;;;;;;4797468;28;20663;-88
2020/12/08 03:28:52;;;;;;;18.90;12.97;;;2.10;1.00;;;;;;4784081;28;20197;-89
2020/12/08 03:31:15;;;;;;;19.17;12.77;;;2.00;1.00;;;;;;4790793;28;20188;-90
2020/12/08 03:33:40;;;;;;;17.23;11.63;;;;;;;;;;4793154;28;20204;-89
2020/12/08 03:36:03;;;;;;;21.40;13.37;;;1.90;1.00;;;;;;4787047;28;20228;-84
2020/12/08 03:38:25;;;;;;;17.53;12.27;;;2.10;1.00;;;;;;4768282;28;20753;-89
2020/12/08 03:40:49;;;;;;;18.37;12.33;;;;;;;;;;4788185;28;20189;-89
2020/12/08 03:43:19;;;;;;;17.77;12.20;;;;;;;;;;4792819;28;20220;-89
2020/12/08 03:45:44;;;;;;;17.47;12.13;;;2.70;1.00;;;;;;4788623;28;20598;-89
2020/12/08 03:48:07;;;;;;;15.13;11.27;;;2.00;1.00;;;;;;4785587;28;20226;-88
2020/12/08 03:50:49;;;;;;;16.27;11.77;;;2.00;1.00;;;;;;4789019;28;20255;-86
2020/12/08 03:53:18;;;;;;;18.07;12.20;;;2.00;1.00;;;;;;4779664;28;20212;-87
2020/12/08 03:55:52;;;;;;;17.40;12.20;;;1.70;1.00;;;;;;4799208;28;20626;-87
2020/12/08 03:58:16;;;;;;;16.60;12.27;;;2.00;1.00;;;;;;4796835;28;21082;-88
2020/12/08 04:00:38;;;;;;;18.67;12.50;;;;;;;;;;4793205;28;20205;-85
2020/12/08 04:03:04;;;;;;;19.70;13.90;;;1.90;1.00;;;;;;4794227;28;20220;-87
2020/12/08 04:05:34;;;;;;;17.30;12.63;;;1.90;1.00;;;;;;4768784;28;20189;-89
2020/12/08 04:07:57;;;;;;;18.87;11.77;;;1.90;99.90;;;;;;4791356;28;20203;-90
2020/12/08 04:10:28;;;;;;;17.43;12.03;;;1.80;99.90;;;;;;4789966;28;20222;-86
2020/12/08 04:12:53;;;;;;;17.53;11.80;;;1.90;99.90;;;;;;4794803;28;20262;-88
2020/12/08 04:15:16;;;;;;;18.93;13.20;;;1.70;86.60;;;;;;4796016;28;20196;-87
2020/12/08 04:17:38;;;;;;;19.70;13.60;;;;;;;;;;4789250;28;20208;-85
2020/12/08 04:20:03;;;;;;;21.23;14.50;;;1.60;99.90;;;;;;4790612;28;20234;-86
2020/12/08 04:22:26;;;;;;;21.57;14.10;;;;;;;;;;4786189;28;20208;-90
2020/12/08 04:24:49;;;;;;;19.53;12.77;;;;;;;;;;4776331;28;20204;-87
2020/12/08 04:27:11;;;;;;;20.30;13.07;;;1.60;1.00;;;;;;4771182;28;20196;-88
2020/12/08 04:29:42;;;;;;;22.00;13.60;;;1.50;99.90;;;;;;4799152;28;20203;-85
2020/12/08 04:32:05;;;;;;;20.03;13.30;;;;;;;;;;4793070;28;20247;-86
2020/12/08 04:34:28;;;;;;;17.07;11.57;;;1.50;1.00;;;;;;4796049;28;20231;-88
2020/12/08 04:36:54;;;;;;;16.33;11.63;;;1.40;1.00;;;;;;4786065;28;20205;-87
2020/12/08 04:39:16;;;;;;;18.73;12.77;;;1.20;1.00;;;;;;4800471;28;20216;-87
2020/12/08 04:41:38;;;;;;;19.87;13.07;;;1.20;1.00;;;;;;4794613;28;20579;-87
2020/12/08 04:44:00;;;;;;;20.73;13.07;;;;;;;;;;4792641;28;20267;-83
2020/12/08 04:46:24;;;;;;;18.53;12.80;;;1.20;1.00;;;;;;4794013;28;20204;-88
2020/12/08 04:48:47;;;;;;;19.53;12.70;;;1.10;1.00;;;;;;4786931;28;20192;-87
2020/12/08 04:51:09;;;;;;;18.50;12.30;;;;;;;;;;4799602;28;20752;-87
2020/12/08 04:53:33;;;;;;;18.00;12.43;;;1.10;71.50;;;;;;4802301;28;20627;-87
2020/12/08 04:55:57;;;;;;;19.83;13.17;;;;;;;;;;4790508;28;20658;-90
2020/12/08 04:58:20;;;;;;;19.63;12.93;;;1.10;99.90;;;;;;4797161;28;20705;-88
2020/12/08 05:00:42;;;;;;;18.87;12.57;;;1.00;99.90;;;;;;4791047;28;20654;-88
2020/12/08 05:03:05;;;;;;;20.27;13.43;;;0.90;99.90;;;;;;4802657;28;20258;-82
2020/12/08 05:05:27;;;;;;;16.73;12.57;;;1.20;99.90;;;;;;4794142;28;20188;-89
2020/12/08 05:07:50;;;;;;;17.60;11.87;;;1.30;99.90;;;;;;4799889;28;20251;-87
2020/12/08 05:10:13;;;;;;;19.93;12.87;;;1.10;99.90;;;;;;4797602;28;20188;-87
2020/12/08 05:12:35;;;;;;;18.83;12.37;;;1.20;99.90;;;;;;4789550;28;20694;-87
2020/12/08 05:14:58;;;;;;;19.67;13.30;;;0.30;99.90;;;;;;4794758;28;20188;-86
2020/12/08 05:17:22;;;;;;;23.10;13.03;;;1.10;99.90;;;;;;4791295;28;20200;-87
2020/12/08 05:19:46;;;;;;;19.47;13.90;;;1.20;99.90;;;;;;4794643;28;20215;-88
2020/12/08 05:22:10;;;;;;;19.47;13.17;;;1.20;99.90;;;;;;4792768;28;20203;-86
2020/12/08 05:24:33;;;;;;;20.03;13.93;;;1.20;99.90;;;;;;4794121;28;21188;-86
2020/12/08 05:26:58;;;;;;;21.83;13.53;;;1.20;99.90;;;;;;4791073;28;21044;-87
2020/12/08 05:29:21;;;;;;;16.80;12.67;;;1.00;99.90;;;;;;4772078;28;20241;-86
2020/12/08 05:31:43;;;;;;;18.30;12.70;;;1.20;99.90;;;;;;4795621;28;20266;-87
2020/12/08 05:34:05;;;;;;;17.33;12.47;;;;;;;;;;4780129;28;20239;-90
2020/12/08 05:36:28;;;;;;;18.90;12.83;;;1.20;99.90;;;;;;4774107;29;20264;-88
2020/12/08 05:38:55;;;;;;;19.27;11.67;;;1.20;99.90;;;;;;4792577;28;20717;-89
2020/12/08 05:41:17;;;;;;;20.50;13.33;;;;;;;;;;4767331;28;20566;-92
2020/12/08 05:43:44;;;;;;;20.80;13.47;;;1.30;99.90;;;;;;4777285;28;20213;-89
2020/12/08 05:46:08;;;;;;;21.77;13.57;;;1.40;99.90;;;;;;4780627;28;20411;-90
2020/12/08 05:48:31;;;;;;;21.33;13.43;;;1.40;99.90;;;;;;4779183;28;20296;-89
2020/12/08 05:50:53;;;;;;;19.73;14.00;;;;;;;;;;4766574;28;20636;-90
2020/12/08 05:53:17;;;;;;;21.20;12.47;;;1.40;99.90;;;;;;4769804;28;20201;-87
2020/12/08 05:55:39;;;;;;;22.37;14.63;;;;;;;;;;4778579;28;20229;-87
2020/12/08 05:58:06;;;;;;;25.47;15.87;;;1.40;99.90;;;;;;4791065;28;20693;-89
2020/12/08 06:00:31;;;;;;;23.10;14.90;;;2.20;99.90;;;;;;4772487;28;20270;-87
2020/12/08 06:02:54;;;;;;;18.73;13.20;;;1.50;99.90;;;;;;4782098;28;20228;-89
2020/12/08 06:05:30;;;;;;;20.57;13.27;;;1.50;96.00;;;;;;4782439;28;20619;-87
2020/12/08 06:07:52;;;;;;;20.97;14.23;;;;;;;;;;4798424;28;20207;-88
2020/12/08 06:10:15;;;;;;;22.33;14.07;;;;;;;;;;4752163;28;20258;-90
2020/12/08 06:12:37;;;;;;;22.77;15.23;;;1.50;11.60;;;;;;4774367;28;20257;-89
2020/12/08 06:15:00;;;;;;;18.43;12.23;;;;;;;;;;4774049;29;20194;-89
2020/12/08 06:17:23;;;;;;;19.57;13.33;;;1.50;1.00;;;;;;4773513;28;20276;-88
2020/12/08 06:19:45;;;;;;;16.90;12.00;;;;;;;;;;4771382;28;20217;-89
2020/12/08 06:22:11;;;;;;;19.37;13.93;;;1.60;1.00;;;;;;4774012;28;20194;-91
2020/12/08 06:24:33;;;;;;;17.70;12.07;;;1.70;1.00;;;;;;4775675;28;20192;-88
2020/12/08 06:26:56;;;;;;;20.37;12.73;;;;;;;;;;4776740;28;20197;-90
2020/12/08 06:29:20;;;;;;;15.23;10.47;;;;;;;;;;4775674;28;20224;-88
2020/12/08 06:31:43;;;;;;;20.37;13.77;;;1.50;1.00;;;;;;4777013;28;20185;-84
2020/12/08 06:34:06;;;;;;;19.67;11.80;;;1.70;1.00;;;;;;4787843;28;20276;-85
2020/12/08 06:36:28;;;;;;;16.53;11.93;;;;;;;;;;4788568;28;20606;-89
2020/12/08 06:39:01;;;;;;;21.10;13.90;;;1.70;1.00;;;;;;4775988;28;20213;-88
2020/12/08 06:41:29;;;;;;;20.00;14.00;;;1.60;1.00;;;;;;4781670;28;20192;-88
2020/12/08 06:43:52;;;;;;;25.80;16.33;;;;;;;;;;4773250;28;20217;-88
2020/12/08 06:46:14;;;;;;;18.30;12.47;;;;;;;;;;4767639;29;20197;-86
2020/12/08 06:48:38;;;;;;;22.17;14.07;;;1.70;1.00;;;;;;4765455;29;20255;-87
2020/12/08 06:51:02;;;;;;;17.27;12.13;;;1.60;1.00;;;;;;4764630;28;20205;-87
2020/12/08 06:53:26;;;;;;;15.50;11.43;;;1.70;1.00;;;;;;4764480;29;20651;-86
2020/12/08 06:55:49;;;;;;;71.60;33.33;;;1.60;1.00;;;;;;4781185;28;20772;-91
2020/12/08 06:58:12;;;;;;;20.43;13.30;;;;;;;;;;4765484;28;20701;-88
2020/12/08 07:00:34;;;;;;;19.10;13.30;;;;;;;;;;4767670;28;20219;-89
2020/12/08 07:02:57;;;;;;;23.67;15.93;;;1.70;99.90;;;;;;4773906;28;20648;-90
2020/12/08 07:05:21;;;;;;;19.03;13.53;;;1.80;99.90;;;;;;4774192;28;20654;-90
2020/12/08 07:07:45;;;;;;;18.40;12.83;;;1.80;99.90;;;;;;4789914;28;20758;-86
2020/12/08 07:10:08;;;;;;;19.23;12.53;;;;;;;;;;4783705;28;20661;-88
2020/12/08 07:12:40;;;;;;;18.00;13.47;;;1.80;99.90;;;;;;4771972;28;20228;-87
2020/12/08 07:15:03;;;;;;;19.93;14.63;;;;;;;;;;4780752;28;20196;-88
2020/12/08 07:17:34;;;;;;;22.57;15.67;;;1.80;1.00;;;;;;4775491;28;20239;-89
2020/12/08 07:19:56;;;;;;;28.47;18.20;;;;;;;;;;4775723;28;20260;-88
2020/12/08 07:22:19;;;;;;;23.57;16.23;;;;;;;;;;4774648;28;20687;-87
2020/12/08 07:24:45;;;;;;;23.40;15.40;;;1.80;1.00;;;;;;4773343;28;20666;-88
2020/12/08 07:27:07;;;;;;;20.27;14.20;;;1.90;1.00;;;;;;4790552;28;21171;-87
2020/12/08 07:29:30;;;;;;;19.23;13.07;;;;;;;;;;4786113;28;20200;-89
2020/12/08 07:31:52;;;;;;;22.87;15.27;;;;;;;;;;4783100;28;20623;-88
2020/12/08 07:34:14;;;;;;;18.70;13.20;;;2.20;1.00;;;;;;4778907;28;20323;-88
2020/12/08 07:36:38;;;;;;;18.10;12.77;;;2.10;99.90;;;;;;4771319;28;20302;-89
2020/12/08 07:39:02;;;;;;;18.33;12.93;;;2.10;1.00;;;;;;4765964;28;20221;-90
2020/12/08 07:41:27;;;;;;;20.57;13.57;;;2.10;99.90;;;;;;4774464;28;20189;-86
2020/12/08 07:43:49;;;;;;;21.53;14.63;;;;;;;;;;4780504;28;20271;-88
2020/12/08 07:46:12;;;;;;;23.83;16.10;;;;;;;;;;4799085;28;20686;-89
2020/12/08 07:48:34;;;;;;;33.23;19.87;;;;;;;;;;4775016;28;20205;-90
2020/12/08 07:50:57;;;;;;;20.83;13.40;;;2.10;1.00;;;;;;4796884;28;20279;-89
2020/12/08 07:53:20;;;;;;;18.57;12.60;;;;;;;;;;4767704;28;20201;-87
2020/12/08 07:55:45;;;;;;;16.20;11.93;;;2.20;1.00;;;;;;4755442;29;20228;-90
2020/12/08 07:58:11;;;;;;;16.63;11.23;;;2.30;5.70;;;;;;4771975;28;20687;-88
2020/12/08 08:00:34;;;;;;;19.33;12.83;;;;;;;;;;4769975;28;20666;-89
2020/12/08 08:02:57;;;;;;;17.53;12.23;;;2.40;99.90;;;;;;4764845;28;20923;-90
2020/12/08 08:05:21;;;;;;;16.07;11.40;;;2.40;99.90;;;;;;4776998;28;20195;-88
2020/12/08 08:07:43;;;;;;;16.60;11.40;;;;;;;;;;4791664;28;20637;-90
2020/12/08 08:10:06;;;;;;;19.57;13.53;;;;;;;;;;4759324;28;20771;-88
2020/12/08 08:12:28;;;;;;;18.10;13.30;;;;;;;;;;4776606;29;20667;-90
2020/12/08 08:14:51;;;;;;;16.43;11.40;;;2.70;1.00;;;;;;4771699;28;20197;-89
2020/12/08 08:17:17;;;;;;;13.70;10.80;;;;;;;;;;4779316;28;20193;-87
2020/12/08 08:19:43;;;;;;;17.20;12.20;;;2.30;1.00;;;;;;4777612;28;20220;-89
2020/12/08 08:22:06;;;;;;;20.10;12.10;;;;;;;;;;4781256;28;20201;-86
2020/12/08 08:24:32;;;;;;;18.03;11.00;;;;;;;;;;4776999;28;20200;-89
2020/12/08 08:26:54;;;;;;;17.77;12.57;;;;;;;;;;4776405;28;20636;-91
2020/12/08 08:29:16;;;;;;;19.13;13.73;;;;;;;;;;4794354;28;20615;-88
2020/12/08 08:31:39;;;;;;;14.67;10.73;;;2.90;99.90;;;;;;4795355;28;20714;-87
2020/12/08 08:34:02;;;;;;;18.00;13.03;;;;;;;;;;4791339;28;20204;-85
2020/12/08 08:36:24;;;;;;;21.43;14.27;;;;;;;;;;4769870;28;20190;-89
2020/12/08 08:38:46;;;;;;;28.13;18.60;;;;;;;;;;4778060;28;20192;-88
2020/12/08 08:41:09;;;;;;;23.03;16.50;;;3.10;99.90;;;;;;4792357;28;20247;-90
2020/12/08 08:43:31;;;;;;;16.43;12.20;;;;;;;;;;4782245;28;20268;-87
2020/12/08 08:45:54;;;;;;;19.30;13.47;;;3.20;99.90;;;;;;4772239;29;20189;-87
2020/12/08 08:48:17;;;;;;;17.67;13.50;;;3.30;99.90;;;;;;4796170;28;20227;-83
2020/12/08 08:50:40;;;;;;;16.00;12.13;;;;;;;;;;4796152;28;20192;-87
2020/12/08 08:53:02;;;;;;;15.87;11.13;;;;;;;;;;4791072;28;20240;-87
2020/12/08 08:55:25;;;;;;;20.20;14.27;;;;;;;;;;4776160;28;20691;-84
2020/12/08 08:57:48;;;;;;;24.93;14.07;;;;;;;;;;4793733;28;20256;-86
2020/12/08 09:00:12;;;;;;;27.07;15.47;;;3.50;99.90;;;;;;4790098;28;20221;-88
2020/12/08 09:02:38;;;;;;;22.50;14.50;;;4.00;1.00;;;;;;4773563;28;20594;-86
2020/12/08 09:05:06;;;;;;;20.50;13.33;;;3.40;99.90;;;;;;4793992;28;20199;-84
2020/12/08 09:07:29;;;;;;;34.73;21.60;;;;;;;;;;4784152;28;20207;-87
2020/12/08 09:09:53;;;;;;;19.30;12.23;;;;;;;;;;4777108;28;20201;-91
2020/12/08 09:12:19;;;;;;;16.77;12.03;;;3.40;99.90;;;;;;4774438;28;20205;-86
2020/12/08 09:14:45;;;;;;;42.23;25.70;;;;;;;;;;4777529;28;20492;-87
2020/12/08 09:17:09;;;;;;;105.10;50.73;;;;;;;;;;4786611;28;20192;-86
2020/12/08 09:19:32;;;;;;;29.13;19.87;;;;;;;;;;4792878;28;20224;-90
2020/12/08 09:21:55;;;;;;;18.83;14.40;;;3.60;99.90;;;;;;4790158;28;20232;-86
2020/12/08 09:24:18;;;;;;;28.63;16.40;;;;;;;;;;4784725;28;20212;-87
2020/12/08 09:26:44;;;;;;;25.73;15.20;;;3.70;99.90;;;;;;4790147;28;20279;-87
2020/12/08 09:29:16;;;;;;;17.53;12.43;;;3.80;99.90;;;;;;4780748;28;20193;-84
2020/12/08 09:31:46;;;;;;;18.83;12.47;;;3.80;1.00;;;;;;4792891;28;20196;-87
2020/12/08 09:34:08;;;;;;;20.87;15.73;;;;;;;;;;4769844;28;20349;-85
2020/12/08 09:36:31;;;;;;;20.63;14.17;;;;;;;;;;4769484;28;20252;-88
2020/12/08 09:38:54;;;;;;;20.23;13.20;;;3.80;1.00;;;;;;4793708;28;20757;-88
2020/12/08 09:41:17;;;;;;;22.20;13.90;;;;;;;;;;4769394;28;20229;-87
2020/12/08 09:43:39;;;;;;;25.47;14.27;;;;;;;;;;4786239;28;20244;-91
2020/12/08 09:46:01;;;;;;;17.00;11.90;;;;;;;;;;4770665;28;20239;-88
2020/12/08 09:48:29;;;;;;;21.13;15.00;;;;;;;;;;4784047;28;20192;-88
2020/12/08 09:50:54;;;;;;;27.00;15.73;;;3.90;1.00;;;;;;4788089;28;20197;-85
2020/12/08 09:53:18;;;;;;;28.40;16.03;;;3.80;1.00;;;;;;4792078;28;20196;-88
2020/12/08 09:55:51;;;;;;;16.60;12.27;;;3.80;1.00;;;;;;4791629;28;20284;-86
2020/12/08 09:58:16;;;;;;;18.00;12.77;;;;;;;;;;4755425;28;20240;-85
2020/12/08 10:00:38;;;;;;;23.17;14.97;;;;;;;;;;4789661;28;20267;-84
2020/12/08 10:03:01;;;;;;;28.33;15.67;;;;;;;;;;4798883;28;20570;-86
2020/12/08 10:05:26;;;;;;;16.97;13.13;;;3.80;1.00;;;;;;4795518;28;20639;-83
2020/12/08 10:07:48;;;;;;;19.97;14.10;;;3.80;1.00;;;;;;4791321;28;20581;-84
2020/12/08 10:10:13;;;;;;;26.07;16.20;;;3.90;1.00;;;;;;4787631;28;20204;-82
2020/12/08 10:12:36;;;;;;;44.17;23.13;;;3.90;39.50;;;;;;4789871;28;20193;-85
2020/12/08 10:15:05;;;;;;;41.93;22.83;;;;;;;;;;4790662;28;20192;-84
2020/12/08 10:17:27;;;;;;;32.37;20.73;;;;;;;;;;4801425;28;20183;-82
2020/12/08 10:19:51;;;;;;;20.67;16.83;;;4.00;99.90;;;;;;4797059;28;20220;-84
2020/12/08 10:22:15;;;;;;;43.77;32.90;;;3.80;99.90;;;;;;4799950;28;20199;-82
2020/12/08 10:24:39;;;;;;;40.00;25.40;;;;;;;;;;4812170;28;20195;-85
2020/12/08 10:27:03;;;;;;;20.17;14.63;;;3.90;71.90;;;;;;4817152;28;20627;-84
2020/12/08 10:29:30;;;;;;;28.30;20.20;;;4.10;1.00;;;;;;4814953;28;20238;-82
2020/12/08 10:31:54;;;;;;;34.07;21.70;;;4.10;1.00;;;;;;4818837;28;20234;-83
2020/12/08 10:34:19;;;;;;;19.73;13.57;;;4.20;1.00;;;;;;4818858;28;20192;-83
2020/12/08 10:36:53;;;;;;;52.67;27.77;;;4.20;1.00;;;;;;4803280;28;20627;-82
2020/12/08 10:39:16;;;;;;;40.00;22.77;;;4.30;1.00;;;;;;4799883;28;20409;-84
2020/12/08 10:41:39;;;;;;;27.97;17.50;;;4.50;1.00;;;;;;4814932;28;20246;-85
2020/12/08 10:44:01;;;;;;;30.03;19.37;;;4.10;1.00;;;;;;4794024;28;20208;-86
2020/12/08 10:46:29;;;;;;;71.53;35.30;;;4.40;99.90;;;;;;4797270;28;20222;-82
2020/12/08 10:48:51;;;;;;;31.17;18.03;;;4.40;1.00;;;;;;4797920;28;20242;-84
2020/12/08 10:51:13;;;;;;;225.17;91.47;;;4.30;1.00;;;;;;4795680;28;20196;-85
2020/12/08 10:53:38;;;;;;;22.30;16.20;;;4.60;1.00;;;;;;4767876;28;20247;-84
2020/12/08 10:56:02;;;;;;;13.13;10.83;;;4.40;1.00;;;;;;4792392;28;20216;-82
2020/12/08 10:58:26;;;;;;;13.13;10.13;;;;;;;;;;4788140;28;20603;-85
2020/12/08 11:00:49;;;;;;;14.13;10.70;;;;;;;;;;4787146;28;20216;-83
2020/12/08 11:03:17;;;;;;;12.87;10.33;;;4.80;1.00;;;;;;4791628;28;20208;-85
2020/12/08 11:05:39;;;;;;;11.80;9.43;;;4.60;99.90;;;;;;4788882;28;20220;-83
2020/12/08 11:08:05;;;;;;;13.50;10.93;;;4.80;1.00;;;;;;4794424;28;20246;-87
2020/12/08 11:10:28;;;;;;;13.13;10.17;;;4.70;1.00;;;;;;4801754;28;20247;-86
2020/12/08 11:12:51;;;;;;;12.77;9.90;;;;;;;;;;4793533;28;20193;-88
2020/12/08 11:15:14;;;;;;;14.23;10.13;;;4.70;1.00;;;;;;4784871;28;20192;-86
2020/12/08 11:17:41;;;;;;;12.50;9.80;;;4.90;99.90;;;;;;4794090;28;20247;-84
2020/12/08 11:20:05;;;;;;;12.97;9.90;;;4.70;47.00;;;;;;4797631;28;20212;-81
2020/12/08 11:22:32;;;;;;;26.80;15.33;;;4.80;34.80;;;;;;4786215;28;20192;-82
2020/12/08 11:24:54;;;;;;;31.87;17.87;;;;;;;;;;4792384;28;20595;-87
2020/12/08 11:27:18;;;;;;;114.00;48.97;;;5.00;99.90;;;;;;4785615;28;20296;-85
2020/12/08 11:29:40;;;;;;;18.40;14.80;;;5.00;1.00;;;;;;4790493;28;20654;-84
2020/12/08 11:32:02;;;;;;;16.33;11.43;;;4.50;99.90;;;;;;4796819;28;20646;-86
2020/12/08 11:34:24;;;;;;;17.10;12.60;;;4.80;99.90;;;;;;4784712;28;20181;-84
2020/12/08 11:36:47;;;;;;;14.63;10.93;;;5.10;1.00;;;;;;4786334;28;20184;-84
2020/12/08 11:39:10;;;;;;;12.93;9.80;;;;;;;;;;4774294;28;20201;-83
2020/12/08 11:41:33;;;;;;;60.63;33.77;;;5.10;99.90;;;;;;4793334;28;20279;-86
2020/12/08 11:43:56;;;;;;;35.43;20.97;;;5.00;99.90;;;;;;4787124;28;20255;-86
2020/12/08 11:46:19;;;;;;;60.57;35.70;;;5.70;99.90;;;;;;4793370;28;20243;-84
2020/12/08 11:48:42;;;;;;;28.60;20.57;;;5.30;1.00;;;;;;4790459;28;20531;-82
2020/12/08 11:51:06;;;;;;;40.00;27.23;;;;;;;;;;4789272;28;20244;-84
2020/12/08 11:53:30;;;;;;;24.60;17.93;;;5.30;1.00;;;;;;4786437;28;20197;-85
2020/12/08 11:55:53;;;;;;;22.93;15.93;;;5.40;99.90;;;;;;4789658;28;20223;-84
2020/12/08 11:58:17;;;;;;;29.13;19.13;;;5.20;99.90;;;;;;4786757;28;20709;-84
2020/12/08 12:00:39;;;;;;;19.43;14.70;;;;;;;;;;4776280;28;20212;-84
2020/12/08 12:03:01;;;;;;;58.83;33.97;;;5.20;99.90;;;;;;4789454;28;20203;-85
2020/12/08 12:05:24;;;;;;;61.00;34.80;;;5.20;99.90;;;;;;4791364;28;20263;-86
2020/12/08 12:07:46;;;;;;;29.07;19.53;;;5.10;1.00;;;;;;4790515;28;20193;-83
2020/12/08 12:10:12;;;;;;;19.23;14.67;;;5.10;1.00;;;;;;4788918;28;20243;-82
2020/12/08 12:15:18;;;;;;;36.17;25.20;;;5.80;99.90;;;;;;4787155;28;20232;-88
2020/12/08 12:17:51;;;;;;;36.10;24.27;;;4.90;99.90;;;;;;4792896;28;20334;-84
2020/12/08 12:20:18;;;;;;;21.63;17.60;;;5.10;99.90;;;;;;4791479;28;20701;-83
2020/12/08 12:22:45;;;;;;;27.10;19.37;;;;;;;;;;4789739;28;20662;-84
2020/12/08 12:25:08;;;;;;;28.43;19.83;;;;;;;;;;4789790;28;20239;-81
2020/12/08 12:27:34;;;;;;;32.73;21.87;;;4.60;99.90;;;;;;4784175;28;20196;-86
2020/12/08 12:29:57;;;;;;;43.10;28.53;;;;;;;;;;4788073;28;20270;-81
2020/12/08 12:32:22;;;;;;;55.27;36.37;;;;;;;;;;4803722;28;20189;-83
2020/12/08 12:34:45;;;;;;;23.17;16.07;;;4.80;1.00;;;;;;4782748;28;20204;-85
2020/12/08 12:37:13;;;;;;;45.17;29.73;;;;;;;;;;4789579;28;20204;-83
2020/12/08 12:39:36;;;;;;;16.77;12.90;;;;;;;;;;4783401;28;20180;-86
2020/12/08 12:42:18;;;;;;;27.70;21.17;;;5.00;1.00;;;;;;4785936;28;20930;-83
2020/12/08 12:44:47;;;;;;;17.13;12.90;;;5.00;1.00;;;;;;4793984;28;20218;-84
2020/12/08 12:47:10;;;;;;;16.37;12.43;;;4.70;1.00;;;;;;4787865;28;20184;-87
2020/12/08 12:49:41;;;;;;;38.13;23.97;;;5.10;1.00;;;;;;4802396;28;20180;-85
2020/12/08 12:52:03;;;;;;;25.30;17.23;;;5.10;1.00;;;;;;4786757;28;20192;-85
2020/12/08 12:54:29;;;;;;;34.97;22.77;;;5.00;99.90;;;;;;4783226;28;20280;-84
2020/12/08 12:56:51;;;;;;;18.37;13.53;;;;;;;;;;4767173;28;20208;-86